Plessisville, Canada
Current Conditions -  °F | °C
As of 5:00 PM on Monday 24 Nov 2014 (Local Time) from CYQB Reporting Station
Broken Clouds Broken Clouds  
Wind Chill: 41°   Ceiling: 9000
Heat Index: 45°   Visibility: 15mi
Dew Point: 45°   Wind: 7mph
Humidity: 100%   Direction: 50°NE
Pressure: 29.32"   Gusts: NA
Location:  46.22°N, 71.77°W
Report Text: CYQB 242200Z 05006KT 15SM R06/5000VP6000FT/U FEW047 SCT060 BKN090 07/07 A2932 RMK SC2SC2AC1 SLP932
Loading
Personal Weather Stations






























Interactive Weather Map New forecast layout! Learn more

10-Day Weather Forecast

Advertisements
Track Severe Weather on mobile